createdAt,value
2018-12-04T00:02:15.965Z,96.50
2018-12-04T00:04:43.569Z,96.20
2018-12-04T00:07:11.012Z,96.20
2018-12-04T00:09:38.482Z,95.60
2018-12-04T00:12:05.941Z,95.70
2018-12-04T00:14:33.420Z,95.90
2018-12-04T00:17:00.952Z,96.00
2018-12-04T00:19:28.407Z,96.00
2018-12-04T00:21:55.843Z,95.70
2018-12-04T00:24:23.362Z,95.60
2018-12-04T00:26:50.797Z,95.70
2018-12-04T00:29:18.285Z,95.80
2018-12-04T00:31:45.721Z,95.60
2018-12-04T00:34:13.253Z,95.50
2018-12-04T00:36:40.715Z,95.60
2018-12-04T00:39:08.454Z,95.70
2018-12-04T00:41:35.893Z,95.80
2018-12-04T00:44:03.365Z,96.10
2018-12-04T00:46:30.805Z,96.40
2018-12-04T00:48:58.290Z,96.70
2018-12-04T00:51:25.821Z,96.80
2018-12-04T00:53:53.289Z,96.90
2018-12-04T00:56:20.736Z,96.70
2018-12-04T00:58:48.270Z,96.90
2018-12-04T01:01:15.722Z,97.00
2018-12-04T01:03:43.173Z,97.30
2018-12-04T01:06:10.829Z,97.00
2018-12-04T01:08:38.559Z,97.30
2018-12-04T01:11:05.997Z,97.30
2018-12-04T01:13:33.446Z,97.20
2018-12-04T01:16:00.949Z,97.30
2018-12-04T01:18:28.386Z,97.20
2018-12-04T01:20:55.865Z,97.20
2018-12-04T01:23:23.398Z,97.10
2018-12-04T01:25:50.998Z,97.10
2018-12-04T01:28:18.638Z,97.00
2018-12-04T01:30:46.111Z,97.10
2018-12-04T01:33:13.555Z,97.30
2018-12-04T01:35:41.023Z,97.10
2018-12-04T01:38:08.469Z,97.20
2018-12-04T01:40:35.928Z,97.20
2018-12-04T01:43:03.510Z,97.50
2018-12-04T01:45:30.969Z,97.50
2018-12-04T01:47:58.410Z,97.60
2018-12-04T01:50:25.878Z,97.60
2018-12-04T01:52:53.317Z,97.90
2018-12-04T01:55:20.820Z,98.00
2018-12-04T01:57:48.254Z,97.70
2018-12-04T02:00:15.919Z,97.60
2018-12-04T02:02:43.345Z,97.60
2018-12-04T02:05:10.833Z,97.50
2018-12-04T02:07:38.377Z,97.50
2018-12-04T02:10:05.973Z,97.40
2018-12-04T02:12:33.490Z,97.40
2018-12-04T02:15:00.953Z,97.60
2018-12-04T02:17:28.395Z,97.30
2018-12-04T02:19:55.864Z,97.40
2018-12-04T02:22:23.318Z,97.60
2018-12-04T02:24:50.863Z,97.50
2018-12-04T02:27:18.305Z,97.50
2018-12-04T02:29:45.774Z,97.40
2018-12-04T02:32:13.208Z,97.40
2018-12-04T02:34:40.691Z,97.40
2018-12-04T02:37:08.121Z,97.40
2018-12-04T02:39:35.595Z,97.50
2018-12-04T02:42:03.128Z,97.30
2018-12-04T02:44:30.601Z,97.40
2018-12-04T02:46:58.132Z,97.50
2018-12-04T02:49:25.596Z,97.50
2018-12-04T02:51:53.036Z,97.50
2018-12-04T02:54:20.503Z,97.40
2018-12-04T02:56:48.031Z,97.40
2018-12-04T02:59:15.540Z,97.60
2018-12-04T03:01:42.979Z,97.40
2018-12-04T03:04:10.506Z,97.40
2018-12-04T03:06:37.938Z,97.40
2018-12-04T03:09:06.241Z,97.40
2018-12-04T03:11:33.677Z,97.40
2018-12-04T03:14:01.155Z,97.20
2018-12-04T03:16:28.627Z,97.30
2018-12-04T03:18:56.069Z,96.90
2018-12-04T03:21:23.546Z,96.90
2018-12-04T03:23:50.988Z,97.00
2018-12-04T03:26:18.443Z,96.90
2018-12-04T03:28:45.899Z,96.90
2018-12-04T03:31:13.343Z,96.60
2018-12-04T03:33:40.959Z,96.80
2018-12-04T03:36:08.636Z,96.40
2018-12-04T03:38:36.174Z,96.20
2018-12-04T03:41:03.827Z,96.30
2018-12-04T03:43:31.300Z,96.10
2018-12-04T03:45:59.188Z,95.90
2018-12-04T03:48:26.718Z,96.20
2018-12-04T03:50:54.153Z,96.00
2018-12-04T03:53:21.636Z,95.80
2018-12-04T03:55:49.069Z,95.70
2018-12-04T03:58:16.538Z,95.60
2018-12-04T04:00:43.989Z,95.50
2018-12-04T04:03:11.453Z,95.30
2018-12-04T04:05:38.970Z,95.40
2018-12-04T04:08:06.437Z,95.00
2018-12-04T04:10:33.982Z,95.00
2018-12-04T04:13:01.541Z,95.00
2018-12-04T04:15:28.975Z,94.90
2018-12-04T04:17:56.498Z,94.90
2018-12-04T04:20:24.073Z,94.70
2018-12-04T04:22:51.557Z,94.80
2018-12-04T04:25:18.989Z,94.80
2018-12-04T04:27:46.628Z,94.60
2018-12-04T04:30:14.077Z,94.50
2018-12-04T04:32:41.522Z,94.50
2018-12-04T04:35:08.982Z,94.30
2018-12-04T04:37:36.430Z,94.10
2018-12-04T04:40:05.042Z,94.20
2018-12-04T04:42:32.498Z,94.10
2018-12-04T04:44:59.961Z,94.00
2018-12-04T04:47:27.407Z,94.10
2018-12-04T04:49:54.876Z,94.00
2018-12-04T04:52:22.313Z,94.20
2018-12-04T04:54:49.913Z,94.00
2018-12-04T04:57:17.350Z,94.00
2018-12-04T04:59:44.813Z,94.50
2018-12-04T05:02:12.863Z,94.40
2018-12-04T05:04:40.366Z,94.40
2018-12-04T05:07:07.805Z,94.40
2018-12-04T05:09:35.279Z,94.50
2018-12-04T05:12:02.855Z,94.50
2018-12-04T05:14:30.304Z,94.40
2018-12-04T05:16:57.731Z,94.50
2018-12-04T05:19:25.202Z,94.20
2018-12-04T05:21:52.642Z,94.30
2018-12-04T05:24:20.110Z,94.30
2018-12-04T05:26:47.567Z,94.20
2018-12-04T05:29:15.032Z,94.10
2018-12-04T05:31:42.468Z,94.30
2018-12-04T05:34:09.935Z,94.20
2018-12-04T05:36:37.379Z,94.20
2018-12-04T05:39:05.707Z,94.30
2018-12-04T05:41:33.137Z,94.00
2018-12-04T05:44:00.610Z,94.00
2018-12-04T05:46:28.041Z,94.00
2018-12-04T05:48:55.519Z,94.00
2018-12-04T05:51:22.970Z,94.20
2018-12-04T05:53:50.428Z,94.20
2018-12-04T05:56:19.192Z,94.40
2018-12-04T05:58:47.006Z,94.50
2018-12-04T06:01:14.875Z,94.50
2018-12-04T06:03:42.755Z,94.60
2018-12-04T06:06:10.259Z,94.70
2018-12-04T06:08:37.693Z,94.70
2018-12-04T06:11:05.725Z,94.80
2018-12-04T06:13:33.208Z,94.70
2018-12-04T06:16:00.766Z,94.70
2018-12-04T06:18:28.218Z,94.60
2018-12-04T06:20:55.705Z,95.20
2018-12-04T06:23:23.145Z,94.90
2018-12-04T06:25:50.609Z,94.70
2018-12-04T06:28:18.049Z,94.80
2018-12-04T06:30:45.537Z,94.90
2018-12-04T06:33:14.953Z,94.90
2018-12-04T06:35:42.413Z,94.90
2018-12-04T06:38:09.855Z,94.90
2018-12-04T06:40:37.326Z,94.70
2018-12-04T06:43:05.402Z,94.70
2018-12-04T06:45:32.908Z,94.70
2018-12-04T06:48:00.342Z,94.80
2018-12-04T06:50:27.864Z,95.00
2018-12-04T06:52:55.324Z,94.70
2018-12-04T06:55:22.782Z,94.70
2018-12-04T06:57:54.922Z,94.70
2018-12-04T07:00:22.477Z,94.60
2018-12-04T07:02:50.015Z,94.60
2018-12-04T07:05:17.461Z,94.60
2018-12-04T07:07:44.892Z,94.60
2018-12-04T07:10:13.554Z,94.60
2018-12-04T07:12:40.987Z,94.70
2018-12-04T07:15:08.922Z,94.50
2018-12-04T07:17:36.424Z,94.50
2018-12-04T07:20:05.220Z,94.40
2018-12-04T07:22:32.657Z,94.20
2018-12-04T07:25:00.097Z,94.10
2018-12-04T07:27:27.558Z,94.20
2018-12-04T07:29:54.994Z,94.00
2018-12-04T07:32:22.510Z,94.30
2018-12-04T07:34:49.928Z,94.30
2018-12-04T07:37:17.384Z,94.30
2018-12-04T07:39:44.818Z,94.40
2018-12-04T07:42:12.278Z,94.30
2018-12-04T07:44:39.712Z,94.40
2018-12-04T07:47:07.173Z,94.20
2018-12-04T07:49:34.625Z,94.10
2018-12-04T07:52:02.093Z,94.20
2018-12-04T07:54:29.678Z,94.30
2018-12-04T07:56:57.137Z,94.30
2018-12-04T07:59:24.577Z,94.30
2018-12-04T08:01:52.033Z,94.40
2018-12-04T08:04:19.595Z,94.60
2018-12-04T08:06:47.053Z,94.40
2018-12-04T08:09:14.488Z,94.30
2018-12-04T08:11:41.965Z,94.50
2018-12-04T08:14:09.541Z,94.50
2018-12-04T08:16:37.141Z,94.50
2018-12-04T08:19:05.553Z,94.70
2018-12-04T08:21:33.018Z,94.80
2018-12-04T08:24:00.461Z,94.80
2018-12-04T08:26:27.926Z,94.70
2018-12-04T08:28:55.466Z,94.80
2018-12-04T08:31:22.929Z,94.70
2018-12-04T08:33:50.372Z,94.80
2018-12-04T08:36:18.027Z,94.80
2018-12-04T08:38:45.455Z,94.70
2018-12-04T08:41:12.919Z,94.80
2018-12-04T08:43:40.358Z,95.00
2018-12-04T08:46:07.841Z,95.00
2018-12-04T08:48:35.266Z,94.90
2018-12-04T08:51:02.742Z,95.00
2018-12-04T08:53:30.182Z,95.00
2018-12-04T08:55:57.644Z,95.10
2018-12-04T08:58:25.256Z,95.20
2018-12-04T09:00:52.684Z,95.40
2018-12-04T09:03:20.240Z,95.50
2018-12-04T09:05:47.689Z,95.10
2018-12-04T09:08:15.168Z,95.20
2018-12-04T09:10:42.724Z,95.10
2018-12-04T09:13:10.209Z,95.10
2018-12-04T09:15:37.661Z,95.30
2018-12-04T09:18:05.299Z,95.40
2018-12-04T09:20:33.014Z,95.40
2018-12-04T09:23:00.567Z,95.10
2018-12-04T09:25:28.809Z,95.00
2018-12-04T09:27:56.311Z,94.60
2018-12-04T09:30:23.866Z,94.30
2018-12-04T09:32:51.459Z,94.10
2018-12-04T09:35:18.908Z,94.30
2018-12-04T09:37:46.352Z,94.20
2018-12-04T09:40:13.813Z,93.90
2018-12-04T09:42:41.324Z,94.10
2018-12-04T09:45:08.850Z,93.90
2018-12-04T09:47:36.287Z,93.50
2018-12-04T09:50:05.170Z,93.50
2018-12-04T09:52:32.605Z,93.50
2018-12-04T09:55:00.070Z,93.40
2018-12-04T09:57:27.521Z,93.20
2018-12-04T09:59:54.981Z,93.10
2018-12-04T10:02:22.493Z,92.80
2018-12-04T10:04:49.970Z,92.10
2018-12-04T10:07:17.413Z,92.40
2018-12-04T10:09:44.902Z,92.30
2018-12-04T10:12:12.341Z,92.20
2018-12-04T10:14:39.811Z,91.10
2018-12-04T10:17:07.254Z,90.50
2018-12-04T10:19:34.730Z,90.30
2018-12-04T10:22:02.169Z,90.50
2018-12-04T10:24:29.649Z,90.40
2018-12-04T10:26:57.352Z,89.40
2018-12-04T10:29:25.286Z,88.60
2018-12-04T10:31:55.956Z,88.40
2018-12-04T10:34:22.163Z,88.50
2018-12-04T10:36:49.638Z,87.50
2018-12-04T10:39:17.083Z,86.70
2018-12-04T10:41:44.549Z,86.20
2018-12-04T10:44:11.992Z,86.30
2018-12-04T10:46:39.462Z,85.10
2018-12-04T10:49:06.918Z,84.70
2018-12-04T10:51:34.376Z,84.40
2018-12-04T10:54:01.923Z,83.80
2018-12-04T10:56:29.421Z,83.70
2018-12-04T10:58:56.917Z,83.50
2018-12-04T11:01:26.418Z,83.00
2018-12-04T11:03:53.856Z,83.40
2018-12-04T11:06:21.326Z,83.00
2018-12-04T11:08:48.752Z,82.10
2018-12-04T11:11:16.371Z,82.20
2018-12-04T11:13:43.804Z,81.50
2018-12-04T11:16:11.275Z,80.80
2018-12-04T11:18:38.703Z,80.40
2018-12-04T11:21:06.195Z,80.80
2018-12-04T11:23:33.622Z,79.30
2018-12-04T11:26:01.185Z,80.00
2018-12-04T11:28:28.695Z,80.10
2018-12-04T11:30:56.154Z,80.00
2018-12-04T11:33:23.586Z,78.10
2018-12-04T11:35:51.053Z,79.10
2018-12-04T11:38:18.499Z,76.70
2018-12-04T11:40:46.033Z,76.90
2018-12-04T11:43:13.471Z,75.60
2018-12-04T11:45:40.946Z,76.40
2018-12-04T11:48:08.374Z,72.80
2018-12-04T11:50:35.801Z,74.20
2018-12-04T11:53:03.335Z,72.50
2018-12-04T11:55:30.749Z,70.30
2018-12-04T11:57:58.212Z,70.10
2018-12-04T12:00:27.657Z,69.40
2018-12-04T12:02:55.121Z,67.90
2018-12-04T12:05:22.567Z,67.70
2018-12-04T12:07:50.636Z,68.10
2018-12-04T12:10:18.054Z,64.70
2018-12-04T12:12:45.512Z,63.20
2018-12-04T12:15:18.008Z,63.30
2018-12-04T12:17:42.512Z,62.00
2018-12-04T12:20:09.957Z,61.20
2018-12-04T12:22:37.419Z,61.50
2018-12-04T12:25:05.521Z,60.50
2018-12-04T12:27:33.155Z,60.40
2018-12-04T12:30:00.911Z,60.60
2018-12-04T12:32:28.371Z,59.80
2018-12-04T12:34:55.817Z,58.90
2018-12-04T12:37:23.289Z,58.90
2018-12-04T12:39:50.726Z,57.60
2018-12-04T12:42:18.193Z,57.30
2018-12-04T12:44:45.626Z,57.30
2018-12-04T12:47:13.113Z,57.00
2018-12-04T12:49:41.246Z,56.10
2018-12-04T12:52:08.769Z,56.30
2018-12-04T12:54:36.235Z,57.70
2018-12-04T12:57:03.749Z,56.20
2018-12-04T12:59:31.185Z,55.30
2018-12-04T13:01:58.760Z,54.20
2018-12-04T13:04:26.233Z,54.30
2018-12-04T13:06:53.839Z,53.60
2018-12-04T13:09:21.370Z,52.40
2018-12-04T13:11:48.806Z,52.60
2018-12-04T13:14:16.268Z,53.80
2018-12-04T13:16:43.719Z,53.50
2018-12-04T13:19:11.329Z,53.20
2018-12-04T13:21:38.783Z,51.50
2018-12-04T13:24:06.260Z,51.60
2018-12-04T13:26:33.699Z,50.90
2018-12-04T13:29:01.228Z,50.60
2018-12-04T13:31:28.667Z,51.30
2018-12-04T13:33:56.238Z,50.60
2018-12-04T13:36:23.806Z,50.30
2018-12-04T13:38:51.267Z,51.00
2018-12-04T13:41:18.824Z,51.70
2018-12-04T13:43:46.381Z,51.80
2018-12-04T13:46:13.817Z,51.50
2018-12-04T13:48:41.309Z,51.90
2018-12-04T13:51:08.833Z,51.10
2018-12-04T13:53:36.297Z,51.50
2018-12-04T13:56:03.846Z,51.10
2018-12-04T13:58:31.395Z,50.30
2018-12-04T14:00:58.901Z,50.70
2018-12-04T14:03:26.442Z,51.60
2018-12-04T14:05:53.882Z,52.10
2018-12-04T14:08:21.437Z,51.60
2018-12-04T14:10:48.959Z,51.80
2018-12-04T14:13:16.513Z,51.70
2018-12-04T14:15:43.970Z,51.60
2018-12-04T14:18:11.534Z,50.70
2018-12-04T14:20:39.050Z,50.40
2018-12-04T14:23:06.521Z,50.70
2018-12-04T14:25:33.954Z,50.80
2018-12-04T14:28:01.432Z,51.80
2018-12-04T14:30:28.957Z,52.20
2018-12-04T14:32:56.414Z,52.80
2018-12-04T14:35:23.900Z,53.50
2018-12-04T14:37:51.430Z,54.20
2018-12-04T14:40:19.045Z,55.00
2018-12-04T14:42:46.540Z,55.50
2018-12-04T14:45:13.980Z,55.70
2018-12-04T14:47:41.529Z,56.00
2018-12-04T14:50:10.220Z,56.90
2018-12-04T14:52:37.678Z,56.90
2018-12-04T14:55:06.192Z,57.70
2018-12-04T14:57:33.750Z,57.40
2018-12-04T15:00:01.266Z,57.90
2018-12-04T15:02:28.905Z,58.40
2018-12-04T15:04:56.725Z,59.50
2018-12-04T15:07:24.646Z,59.70
2018-12-04T15:09:52.240Z,60.30
2018-12-04T15:12:19.831Z,60.50
2018-12-04T15:14:47.358Z,61.00
2018-12-04T15:17:14.838Z,61.00
2018-12-04T15:19:42.508Z,61.80
2018-12-04T15:22:10.570Z,61.90
2018-12-04T15:24:38.029Z,62.30
2018-12-04T15:27:05.490Z,62.50
2018-12-04T15:29:33.129Z,62.80
2018-12-04T15:32:00.760Z,63.20
2018-12-04T15:34:28.416Z,63.60
2018-12-04T15:36:56.673Z,63.90
2018-12-04T15:39:24.433Z,64.50
2018-12-04T15:41:52.001Z,64.70
2018-12-04T15:44:19.506Z,64.90
2018-12-04T15:46:46.969Z,65.30
2018-12-04T15:49:14.519Z,65.60
2018-12-04T15:51:42.094Z,66.00
2018-12-04T15:54:10.314Z,66.40
2018-12-04T15:56:37.917Z,66.70
2018-12-04T15:59:05.977Z,67.40
2018-12-04T16:01:33.458Z,67.70
2018-12-04T16:04:01.461Z,68.60
2018-12-04T16:06:29.106Z,69.30
2018-12-04T16:08:56.558Z,69.60
2018-12-04T16:11:24.018Z,69.80
2018-12-04T16:13:51.484Z,70.20
2018-12-04T16:16:19.735Z,70.40
2018-12-04T16:18:47.295Z,70.30
2018-12-04T16:21:14.831Z,70.70
2018-12-04T16:23:42.268Z,71.20
2018-12-04T16:26:09.755Z,71.70
2018-12-04T16:28:37.188Z,72.00
2018-12-04T16:31:04.663Z,72.10
2018-12-04T16:33:32.144Z,72.50
2018-12-04T16:35:59.674Z,73.00
2018-12-04T16:38:27.115Z,73.10
2018-12-04T16:40:54.579Z,73.40
2018-12-04T16:43:22.023Z,73.40
2018-12-04T16:45:49.506Z,73.60
2018-12-04T16:48:16.946Z,73.90
2018-12-04T16:50:44.515Z,73.80
2018-12-04T16:53:11.942Z,74.00
2018-12-04T16:55:39.440Z,74.20
2018-12-04T16:58:06.882Z,74.80
2018-12-04T17:00:34.439Z,75.20
2018-12-04T17:03:02.042Z,75.70
2018-12-04T17:05:29.575Z,75.90
2018-12-04T17:07:57.399Z,76.00
2018-12-04T17:10:24.865Z,76.00
2018-12-04T17:12:52.306Z,75.90
2018-12-04T17:15:19.795Z,75.70
2018-12-04T17:17:47.212Z,77.00
2018-12-04T17:20:14.662Z,77.00
2018-12-04T17:22:42.134Z,77.40
2018-12-04T17:25:09.626Z,77.10
2018-12-04T17:27:37.500Z,77.50
2018-12-04T17:30:07.354Z,77.60
2018-12-04T17:32:34.895Z,77.70
2018-12-04T17:35:02.343Z,78.00
2018-12-04T17:37:29.807Z,78.20
2018-12-04T17:39:57.240Z,78.50
2018-12-04T17:42:24.709Z,78.50
2018-12-04T17:44:52.148Z,78.20
2018-12-04T17:47:19.624Z,78.90
2018-12-04T17:49:47.047Z,78.10
2018-12-04T17:52:14.508Z,78.10
2018-12-04T17:54:41.947Z,78.40
2018-12-04T17:57:09.423Z,78.70
2018-12-04T17:59:36.878Z,78.80
2018-12-04T18:02:04.428Z,78.80
2018-12-04T18:04:31.890Z,78.80
2018-12-04T18:06:59.469Z,78.90
2018-12-04T18:09:27.033Z,79.20
2018-12-04T18:11:54.500Z,79.80
2018-12-04T18:14:21.939Z,80.00
2018-12-04T18:16:49.416Z,80.30
2018-12-04T18:19:16.927Z,80.00
2018-12-04T18:21:44.463Z,80.00
2018-12-04T18:24:11.943Z,80.30
2018-12-04T18:26:39.426Z,80.90
2018-12-04T18:29:06.854Z,81.40
2018-12-04T18:31:34.325Z,81.30
2018-12-04T18:34:01.794Z,81.10
2018-12-04T18:36:29.263Z,81.50
2018-12-04T18:38:56.795Z,81.70
2018-12-04T18:41:24.275Z,81.60
2018-12-04T18:43:51.722Z,81.30
2018-12-04T18:46:19.231Z,81.30
2018-12-04T18:48:46.713Z,81.50
2018-12-04T18:51:14.189Z,81.30
2018-12-04T18:53:41.646Z,81.40
2018-12-04T18:56:09.141Z,81.70
2018-12-04T18:58:37.685Z,82.20
2018-12-04T19:01:05.140Z,82.10
2018-12-04T19:03:32.629Z,81.90
2018-12-04T19:06:00.273Z,81.90
2018-12-04T19:08:33.476Z,82.30
2018-12-04T19:11:01.225Z,82.70
2018-12-04T19:13:28.785Z,82.70
2018-12-04T19:15:56.321Z,82.70
2018-12-04T19:18:23.772Z,83.00
2018-12-04T19:20:51.317Z,83.30
2018-12-04T19:23:18.765Z,83.40
2018-12-04T19:25:47.370Z,83.70
2018-12-04T19:28:14.941Z,83.80
2018-12-04T19:30:42.539Z,83.60
2018-12-04T19:33:09.994Z,83.10
2018-12-04T19:35:37.540Z,83.20
2018-12-04T19:38:05.026Z,83.20
2018-12-04T19:40:32.480Z,83.40
2018-12-04T19:42:59.981Z,83.40
2018-12-04T19:45:27.435Z,83.20
2018-12-04T19:47:54.929Z,83.20
2018-12-04T19:50:22.391Z,83.10
2018-12-04T19:52:49.870Z,83.50
2018-12-04T19:55:17.499Z,83.80
2018-12-04T19:57:44.984Z,83.00
2018-12-04T20:00:12.651Z,83.40
2018-12-04T20:02:40.174Z,84.00
2018-12-04T20:05:08.561Z,84.60
2018-12-04T20:07:36.051Z,84.30
2018-12-04T20:10:03.801Z,84.00
2018-12-04T20:12:31.406Z,84.10
2018-12-04T20:14:58.868Z,84.10
2018-12-04T20:17:26.331Z,84.60
2018-12-04T20:19:53.824Z,84.70
2018-12-04T20:22:21.283Z,84.40
2018-12-04T20:24:48.749Z,84.00
2018-12-04T20:27:16.292Z,84.00
2018-12-04T20:29:43.797Z,84.30
2018-12-04T20:32:11.253Z,83.30
2018-12-04T20:34:38.755Z,83.30
2018-12-04T20:37:06.222Z,82.80
2018-12-04T20:39:33.669Z,83.20
2018-12-04T20:42:01.122Z,83.40
2018-12-04T20:44:28.593Z,83.70
2018-12-04T20:46:56.030Z,84.00
2018-12-04T20:49:24.077Z,83.90
2018-12-04T20:51:51.508Z,84.00
2018-12-04T20:54:18.981Z,83.90
2018-12-04T20:56:46.526Z,84.10
2018-12-04T20:59:14.002Z,84.60
2018-12-04T21:01:42.895Z,85.10
2018-12-04T21:04:10.749Z,85.30
2018-12-04T21:06:38.435Z,85.20
2018-12-04T21:09:07.286Z,85.00
2018-12-04T21:11:34.984Z,85.00
2018-12-04T21:14:03.839Z,85.40
2018-12-04T21:16:31.339Z,86.00
2018-12-04T21:18:59.253Z,86.10
2018-12-04T21:21:27.488Z,86.00
2018-12-04T21:23:55.113Z,86.10
2018-12-04T21:26:22.693Z,86.30
2018-12-04T21:28:56.447Z,86.50
2018-12-04T21:31:30.726Z,86.90
2018-12-04T21:34:03.945Z,87.10
2018-12-04T21:36:37.208Z,86.40
2018-12-04T21:39:13.601Z,86.20
2018-12-04T21:41:47.010Z,86.30
2018-12-04T21:44:21.678Z,86.20
2018-12-04T21:46:55.170Z,86.40
2018-12-04T21:49:23.191Z,86.50
2018-12-04T21:51:50.624Z,86.00
2018-12-04T21:54:18.618Z,85.80
2018-12-04T21:56:46.098Z,85.80
2018-12-04T21:59:13.933Z,85.80
2018-12-04T22:01:41.521Z,86.10
2018-12-04T22:04:09.058Z,86.60
2018-12-04T22:06:37.000Z,86.90
2018-12-04T22:09:06.770Z,87.10
2018-12-04T22:11:34.872Z,87.20
2018-12-04T22:14:02.781Z,87.20
2018-12-04T22:16:30.219Z,87.00
2018-12-04T22:18:57.690Z,86.40
2018-12-04T22:21:25.203Z,86.40
2018-12-04T22:23:53.163Z,86.50
2018-12-04T22:26:20.981Z,86.10
2018-12-04T22:28:48.554Z,86.00
2018-12-04T22:31:15.981Z,85.80
2018-12-04T22:33:43.450Z,86.40
2018-12-04T22:36:10.906Z,86.30
2018-12-04T22:38:38.379Z,86.50
2018-12-04T22:41:08.380Z,86.20
2018-12-04T22:43:36.011Z,85.60
2018-12-04T22:46:03.584Z,85.50
2018-12-04T22:48:31.100Z,85.70
2018-12-04T22:50:58.640Z,85.80
2018-12-04T22:53:26.067Z,85.60
2018-12-04T22:55:53.552Z,85.80
2018-12-04T22:58:20.973Z,85.80
2018-12-04T23:00:49.415Z,86.00
2018-12-04T23:03:16.842Z,86.00
2018-12-04T23:05:44.306Z,85.90
2018-12-04T23:08:11.777Z,85.80
2018-12-04T23:10:39.254Z,85.70
2018-12-04T23:13:06.808Z,85.80
2018-12-04T23:15:34.388Z,86.00
2018-12-04T23:18:02.132Z,86.20
2018-12-04T23:20:29.661Z,86.00
2018-12-04T23:22:57.108Z,86.00
2018-12-04T23:25:24.613Z,86.00
2018-12-04T23:27:52.049Z,85.60
2018-12-04T23:30:19.548Z,85.50
2018-12-04T23:32:46.991Z,85.80
2018-12-04T23:35:14.441Z,86.00
2018-12-04T23:37:41.975Z,86.00
2018-12-04T23:40:09.478Z,86.10
2018-12-04T23:42:36.931Z,86.00
2018-12-04T23:45:04.830Z,85.90
2018-12-04T23:47:32.293Z,86.00
2018-12-04T23:49:59.832Z,86.00
2018-12-04T23:52:27.314Z,86.00
2018-12-04T23:54:54.786Z,86.20
2018-12-04T23:57:22.388Z,86.30
2018-12-04T23:59:49.825Z,86.30
